Time;durP1;ratioP1;P1;durP2;ratioP2;P2;SDS_P1;SDS_P2;PMS_P1;PMS_P2;Temp;Humidity;BMP_temperature;BMP_pressure;BME280_temperature;BME280_humidity;BME280_pressure;Samples;Min_cycle;Max_cycle;Signal;HPM_P1;HPM_P2
2023/05/12 06:07:37;;;;;;;;;7.00;6.00;;;;;;;;5101573;27;13417;-67
2023/05/12 06:10:03;;;;;;;;;5.25;5.25;;;;;;;;5106128;28;12257;-67
2023/05/12 06:12:28;;;;;;;;;3.50;3.50;;;;;;;;5106034;28;8804;-67
2023/05/12 06:14:53;;;;;;;;;6.00;6.00;;;;;;;;5105973;28;11436;-68
2023/05/12 06:17:18;;;;;;;;;3.00;3.00;;;;;;;;5104707;28;8815;-67
2023/05/12 06:26:55;;;;;;;;;2.25;2.25;;;;;;;;5083396;27;13533;-71
2023/05/12 06:29:21;;;;;;;;;1.00;1.00;;;;;;;;5086332;28;10913;-69
2023/05/12 06:31:46;;;;;;;;;2.00;1.00;;;;;;;;5086706;28;8825;-70
2023/05/12 06:34:12;;;;;;;;;1.00;1.00;;;;;;;;5084117;28;8826;-66
2023/05/12 06:36:37;;;;;;;;;8.00;5.25;;;;;;;;5085501;28;8830;-67
2023/05/12 06:39:03;;;;;;;;;4.00;3.00;;;;;;;;5079864;28;8797;-69
2023/05/12 06:41:28;;;;;;;;;1.75;1.00;;;;;;;;5074250;28;8897;-66
2023/05/12 06:43:54;;;;;;;;;2.00;1.00;;;;;;;;5064479;28;8845;-66
2023/05/12 06:46:19;;;;;;;;;5.00;2.00;;;;;;;;5065758;28;8931;-67
2023/05/12 06:48:45;;;;;;;;;6.25;2.00;;;;;;;;5065670;28;8821;-67
2023/05/12 06:51:10;;;;;;;;;2.50;2.50;;;;;;;;5071880;28;8829;-66
2023/05/12 06:53:38;;;;;;;;;1.00;1.00;;;;;;;;5082534;28;8825;-66
2023/05/12 06:56:04;;;;;;;;;2.00;2.00;;;;;;;;5085529;28;8806;-67
2023/05/12 06:58:30;;;;;;;;;3.25;1.00;;;;;;;;5085707;28;10500;-67
2023/05/12 07:00:55;;;;;;;;;2.00;2.00;;;;;;;;5085312;28;8808;-67
2023/05/12 07:03:21;;;;;;;;;4.25;3.25;;;;;;;;5085368;28;8786;-67
2023/05/12 07:05:46;;;;;;;;;8.00;5.00;;;;;;;;5081971;28;9607;-68
2023/05/12 07:08:11;;;;;;;;;3.00;3.00;;;;;;;;5082770;28;9556;-68
2023/05/12 07:10:37;;;;;;;;;3.25;3.25;;;;;;;;5085068;28;8803;-69
2023/05/12 07:13:03;;;;;;;;;4.50;4.00;;;;;;;;5085292;28;8807;-71
2023/05/12 07:15:28;;;;;;;;;5.75;5.00;;;;;;;;5084058;28;8850;-72
2023/05/12 07:17:54;;;;;;;;;17.75;15.25;;;;;;;;5083099;28;8845;-71
2023/05/12 07:20:19;;;;;;;;;3.00;1.00;;;;;;;;5085132;28;8890;-69
2023/05/12 07:22:45;;;;;;;;;1.50;1.50;;;;;;;;5084918;28;9779;-73
2023/05/12 07:25:10;;;;;;;;;3.00;3.00;;;;;;;;5085130;28;8842;-72
2023/05/12 07:27:35;;;;;;;;;3.00;3.00;;;;;;;;5083257;28;8949;-69
2023/05/12 07:30:01;;;;;;;;;2.75;2.75;;;;;;;;5083564;28;9545;-69
2023/05/12 07:32:26;;;;;;;;;2.00;1.00;;;;;;;;5085135;28;9045;-70
2023/05/12 07:34:52;;;;;;;;;2.00;2.00;;;;;;;;5085674;28;8826;-71
2023/05/12 07:37:17;;;;;;;;;4.00;2.00;;;;;;;;5075095;28;8838;-71
2023/05/12 07:39:42;;;;;;;;;4.33;2.00;;;;;;;;5071388;28;8931;-71
2023/05/12 07:42:08;;;;;;;;;2.00;1.00;;;;;;;;5062852;28;8826;-69
2023/05/12 07:44:33;;;;;;;;;3.00;1.00;;;;;;;;5050032;28;8837;-69
2023/05/12 07:46:59;;;;;;;;;1.67;1.67;;;;;;;;5060473;28;9556;-70
2023/05/12 07:49:24;;;;;;;;;2.67;1.00;;;;;;;;5069057;28;8953;-68
2023/05/12 07:51:49;;;;;;;;;4.00;4.00;;;;;;;;5069083;28;8831;-69
2023/05/12 07:54:15;;;;;;;;;3.00;3.00;;;;;;;;5071093;28;8807;-70
2023/05/12 07:56:40;;;;;;;;;3.67;3.67;;;;;;;;5071407;28;8827;-71
2023/05/12 07:59:06;;;;;;;;;3.33;3.33;;;;;;;;5069346;28;8826;-70
2023/05/12 08:01:31;;;;;;;;;4.00;3.00;;;;;;;;5071471;28;8794;-72
2023/05/12 08:03:56;;;;;;;;;4.00;3.00;;;;;;;;5071363;28;8815;-72
2023/05/12 08:06:21;;;;;;;;;3.67;3.67;;;;;;;;5070964;28;8842;-72
2023/05/12 08:08:47;;;;;;;;;3.00;3.00;;;;;;;;5069478;28;8799;-70
2023/05/12 08:11:12;;;;;;;;;3.00;2.00;;;;;;;;5070870;28;8842;-70
2023/05/12 08:13:38;;;;;;;;;6.67;3.00;;;;;;;;5070077;28;8939;-69
2023/05/12 08:16:03;;;;;;;;;6.00;4.67;;;;;;;;5069872;28;8803;-69
2023/05/12 08:18:29;;;;;;;;;4.67;2.67;;;;;;;;5070907;28;8783;-70
2023/05/12 08:20:54;;;;;;;;;3.00;3.00;;;;;;;;5070674;28;9593;-70
2023/05/12 08:23:19;;;;;;;;;3.33;3.33;;;;;;;;5069795;28;8831;-69
2023/05/12 08:25:47;;;;;;;;;2.67;2.67;;;;;;;;5069935;28;8935;-70
2023/05/12 08:28:12;;;;;;;;;3.50;3.00;;;;;;;;5059678;28;8803;-68
2023/05/12 08:30:38;;;;;;;;;2.67;2.67;;;;;;;;5070703;28;9586;-70
2023/05/12 08:33:03;;;;;;;;;3.00;3.00;;;;;;;;5071194;28;8809;-69
2023/05/12 08:35:29;;;;;;;;;5.00;4.00;;;;;;;;5070633;28;8964;-69
2023/05/12 08:37:55;;;;;;;;;3.67;3.33;;;;;;;;5070781;28;9578;-70
2023/05/12 08:40:21;;;;;;;;;2.25;2.25;;;;;;;;5070560;28;8806;-69
2023/05/12 08:42:47;;;;;;;;;2.75;2.75;;;;;;;;5070748;28;8822;-69
2023/05/12 08:45:12;;;;;;;;;4.33;2.33;;;;;;;;5070659;28;8928;-69
2023/05/12 08:47:38;;;;;;;;;2.00;2.00;;;;;;;;5070682;28;8925;-70
2023/05/12 08:50:04;;;;;;;;;1.75;1.25;;;;;;;;5068247;28;8846;-69
2023/05/12 08:52:31;;;;;;;;;2.00;2.00;;;;;;;;5070198;28;8808;-71
2023/05/12 08:54:57;;;;;;;;;2.00;2.00;;;;;;;;5070798;28;8837;-71
2023/05/12 08:57:23;;;;;;;;;2.67;1.00;;;;;;;;5070804;28;9549;-71
2023/05/12 08:59:48;;;;;;;;;3.00;2.00;;;;;;;;5070466;28;8803;-70
2023/05/12 09:02:16;;;;;;;;;4.33;2.33;;;;;;;;5070644;28;8920;-70
2023/05/12 09:04:41;;;;;;;;;2.50;2.50;;;;;;;;5070056;28;8822;-71
2023/05/12 09:07:07;;;;;;;;;4.33;4.00;;;;;;;;5063549;28;8911;-70
2023/05/12 09:09:34;;;;;;;;;4.00;4.00;;;;;;;;5057741;28;8809;-70
2023/05/12 09:12:01;;;;;;;;;3.75;3.00;;;;;;;;5050333;28;8883;-70
2023/05/12 09:14:28;;;;;;;;;3.50;3.25;;;;;;;;5050118;28;8847;-69
2023/05/12 09:16:58;;;;;;;;;4.75;3.00;;;;;;;;5050126;28;8855;-71
2023/05/12 09:19:24;;;;;;;;;2.25;1.75;;;;;;;;5049910;28;8820;-72
2023/05/12 09:21:50;;;;;;;;;3.00;1.00;;;;;;;;5061779;28;8795;-71
2023/05/12 09:24:15;;;;;;;;;3.33;2.33;;;;;;;;5067475;28;8920;-72
2023/05/12 09:26:48;;;;;;;;;4.33;2.67;;;;;;;;5067049;28;8919;-72
2023/05/12 09:29:14;;;;;;;;;2.00;2.00;;;;;;;;5069759;28;8820;-73
2023/05/12 09:31:47;;;;;;;;;3.00;3.00;;;;;;;;5069447;28;8953;-73
2023/05/12 09:34:13;;;;;;;;;4.00;3.50;;;;;;;;5069726;28;8821;-73
2023/05/12 09:36:38;;;;;;;;;4.00;3.00;;;;;;;;5066740;28;8838;-73
2023/05/12 09:39:05;;;;;;;;;5.67;4.33;;;;;;;;5068093;28;8861;-72
2023/05/12 09:41:40;;;;;;;;;2.75;2.75;;;;;;;;5069188;28;8795;-73
2023/05/12 09:44:07;;;;;;;;;2.25;2.25;;;;;;;;5069546;28;8802;-72
2023/05/12 09:46:32;;;;;;;;;12.50;12.50;;;;;;;;5066997;28;8854;-72
2023/05/12 09:48:58;;;;;;;;;11.33;5.67;;;;;;;;5067838;28;8948;-72
2023/05/12 09:51:25;;;;;;;;;5.00;4.00;;;;;;;;5068743;28;9525;-71
2023/05/12 09:53:50;;;;;;;;;4.25;3.00;;;;;;;;5067988;28;8845;-71
2023/05/12 09:56:16;;;;;;;;;4.00;4.00;;;;;;;;5067220;28;8870;-72
2023/05/12 09:58:45;;;;;;;;;4.00;3.00;;;;;;;;5069393;28;8813;-73
2023/05/12 10:01:14;;;;;;;;;3.50;3.50;;;;;;;;5069012;28;8786;-73
2023/05/12 10:03:41;;;;;;;;;4.00;4.00;;;;;;;;5069376;28;8791;-72
2023/05/12 10:06:08;;;;;;;;;5.75;4.00;;;;;;;;5066465;28;8826;-71
2023/05/12 10:08:37;;;;;;;;;2.00;2.00;;;;;;;;5068819;28;9490;-71
2023/05/12 10:11:03;;;;;;;;;3.00;3.00;;;;;;;;5069258;28;8813;-71
2023/05/12 10:13:29;;;;;;;;;4.25;3.00;;;;;;;;5069314;28;8804;-71
2023/05/12 10:15:56;;;;;;;;;2.00;2.00;;;;;;;;5069304;28;8838;-72
2023/05/12 10:18:21;;;;;;;;;3.25;3.25;;;;;;;;5069019;28;11446;-71
2023/05/12 10:20:47;;;;;;;;;4.00;2.00;;;;;;;;5068643;28;8814;-74
2023/05/12 10:23:13;;;;;;;;;3.75;3.50;;;;;;;;5068948;28;8889;-70
2023/05/12 10:25:41;;;;;;;;;5.00;2.50;;;;;;;;5068643;28;8879;-68
2023/05/12 10:28:07;;;;;;;;;3.00;2.75;;;;;;;;5068770;28;9496;-72
2023/05/12 10:30:32;;;;;;;;;3.00;2.00;;;;;;;;5068612;28;8919;-70
2023/05/12 10:32:58;;;;;;;;;3.00;2.33;;;;;;;;5069022;28;8802;-75
2023/05/12 10:35:32;;;;;;;;;2.33;2.00;;;;;;;;5068957;28;8803;-73
2023/05/12 10:38:11;;;;;;;;;3.50;3.50;;;;;;;;5068263;28;8977;-72
2023/05/12 10:40:49;;;;;;;;;3.33;3.00;;;;;;;;5068196;28;8810;-70
2023/05/12 10:43:22;;;;;;;;;4.00;3.00;;;;;;;;5068347;28;8858;-71
2023/05/12 10:46:04;;;;;;;;;3.00;2.00;;;;;;;;5068488;28;8936;-78
2023/05/12 10:48:29;;;;;;;;;2.00;2.00;;;;;;;;5067583;28;8811;-77
2023/05/12 10:50:55;;;;;;;;;3.00;1.00;;;;;;;;5068839;28;8783;-75
2023/05/12 10:53:26;;;;;;;;;4.00;2.00;;;;;;;;5067852;28;8802;-76
2023/05/12 10:55:54;;;;;;;;;3.00;2.00;;;;;;;;5069073;28;8778;-74
2023/05/12 10:58:19;;;;;;;;;2.00;2.00;;;;;;;;5068362;28;8805;-76
2023/05/12 11:00:52;;;;;;;;;3.67;2.00;;;;;;;;5068560;28;8926;-75
2023/05/12 11:03:22;;;;;;;;;5.00;2.00;;;;;;;;5068869;28;8849;-76
2023/05/12 11:05:57;;;;;;;;;3.33;3.33;;;;;;;;5068499;28;9067;-81
2023/05/12 11:08:23;;;;;;;;;3.00;2.00;;;;;;;;5068689;28;9079;-77
2023/05/12 11:10:49;;;;;;;;;3.00;2.00;;;;;;;;5068439;28;9150;-72
2023/05/12 11:13:16;;;;;;;;;4.00;3.00;;;;;;;;5070064;28;8952;-75
2023/05/12 11:15:43;;;;;;;;;3.00;1.00;;;;;;;;5072290;28;9190;-76
2023/05/12 11:18:08;;;;;;;;;2.00;2.00;;;;;;;;5071969;28;8878;-76
2023/05/12 11:20:34;;;;;;;;;2.00;1.67;;;;;;;;5071438;28;9023;-76
2023/05/12 11:22:59;;;;;;;;;2.00;2.00;;;;;;;;5072128;28;8905;-76
2023/05/12 11:25:25;;;;;;;;;2.33;1.00;;;;;;;;5070146;28;8850;-77
2023/05/12 11:27:51;;;;;;;;;2.00;2.00;;;;;;;;5069880;28;8822;-75
2023/05/12 11:30:16;;;;;;;;;1.33;1.33;;;;;;;;5070444;28;9200;-76
2023/05/12 11:32:42;;;;;;;;;1.00;1.00;;;;;;;;5070479;28;8819;-77
2023/05/12 11:35:11;;;;;;;;;1.00;1.00;;;;;;;;5070067;28;8936;-73
2023/05/12 11:37:38;;;;;;;;;1.00;1.00;;;;;;;;5069784;28;8833;-75
2023/05/12 11:40:11;;;;;;;;;1.33;1.00;;;;;;;;5071613;28;9329;-75
2023/05/12 11:42:38;;;;;;;;;2.25;1.00;;;;;;;;5071678;28;9358;-69
2023/05/12 11:45:03;;;;;;;;;1.00;1.00;;;;;;;;5070687;28;9352;-69
2023/05/12 11:47:28;;;;;;;;;2.50;1.00;;;;;;;;5071589;28;9417;-75
2023/05/12 11:49:54;;;;;;;;;3.00;2.00;;;;;;;;5071261;28;8827;-76
2023/05/12 11:52:21;;;;;;;;;3.00;3.00;;;;;;;;5071779;28;8803;-75
2023/05/12 11:54:50;;;;;;;;;4.00;3.25;;;;;;;;5071617;28;11465;-71
2023/05/12 11:57:27;;;;;;;;;3.00;3.00;;;;;;;;5071462;28;9778;-76
2023/05/12 12:00:02;;;;;;;;;2.50;2.00;;;;;;;;5060982;28;9941;-75
2023/05/12 12:02:28;;;;;;;;;8.75;6.75;;;;;;;;5051193;28;9644;-72
2023/05/12 12:04:53;;;;;;;;;3.50;3.50;;;;;;;;5051298;28;10746;-75
2023/05/12 12:07:29;;;;;;;;;7.00;6.25;;;;;;;;5051435;28;8882;-75
2023/05/12 12:09:54;;;;;;;;;2.25;2.00;;;;;;;;5051179;28;8896;-75
2023/05/12 12:12:20;;;;;;;;;2.00;2.00;;;;;;;;5051269;28;9640;-76
2023/05/12 12:14:45;;;;;;;;;2.25;1.50;;;;;;;;5068482;28;9693;-75
2023/05/12 12:17:10;;;;;;;;;2.00;2.00;;;;;;;;5071114;28;8814;-75
2023/05/12 12:19:36;;;;;;;;;1.50;1.50;;;;;;;;5070741;28;8774;-75
2023/05/12 12:22:01;;;;;;;;;3.00;2.00;;;;;;;;5070918;28;8787;-77
2023/05/12 12:24:26;;;;;;;;;4.75;2.00;;;;;;;;5070843;28;8803;-76
2023/05/12 12:26:52;;;;;;;;;5.75;5.25;;;;;;;;5070835;28;8838;-71
2023/05/12 12:29:17;;;;;;;;;3.00;3.00;;;;;;;;5064469;28;8902;-70
2023/05/12 12:31:43;;;;;;;;;2.50;2.00;;;;;;;;5064702;28;8803;-73
2023/05/12 12:34:08;;;;;;;;;3.00;3.00;;;;;;;;5056448;28;8943;-72
2023/05/12 12:36:34;;;;;;;;;4.75;4.75;;;;;;;;5050393;28;8797;-72
2023/05/12 12:38:59;;;;;;;;;3.75;3.75;;;;;;;;5050385;28;8824;-72
2023/05/12 12:41:25;;;;;;;;;4.75;3.75;;;;;;;;5050390;28;8816;-74
2023/05/12 12:43:51;;;;;;;;;4.00;3.75;;;;;;;;5050678;28;8813;-75
2023/05/12 12:46:16;;;;;;;;;1.75;1.25;;;;;;;;5050957;28;8964;-75
2023/05/12 12:48:42;;;;;;;;;2.00;2.00;;;;;;;;5049115;28;10621;-77
2023/05/12 12:51:07;;;;;;;;;2.75;2.00;;;;;;;;5056430;28;8845;-72
2023/05/12 12:53:33;;;;;;;;;1.00;1.00;;;;;;;;5069915;28;8876;-73
2023/05/12 12:55:58;;;;;;;;;2.00;1.00;;;;;;;;5070080;28;8901;-72
2023/05/12 12:58:23;;;;;;;;;2.50;1.50;;;;;;;;5069348;28;8807;-72
2023/05/12 13:00:49;;;;;;;;;6.00;2.00;;;;;;;;5068901;28;8794;-73
2023/05/12 13:03:14;;;;;;;;;1.00;1.00;;;;;;;;5069551;28;8909;-73
2023/05/12 13:05:40;;;;;;;;;2.25;2.25;;;;;;;;5070012;28;8857;-73
2023/05/12 13:08:05;;;;;;;;;3.25;3.00;;;;;;;;5069900;28;8848;-73
2023/05/12 13:10:30;;;;;;;;;2.00;2.00;;;;;;;;5061408;28;8845;-74
2023/05/12 13:12:56;;;;;;;;;3.00;2.00;;;;;;;;5053720;28;9516;-77
2023/05/12 13:15:21;;;;;;;;;1.00;1.00;;;;;;;;5049805;28;8785;-74
2023/05/12 13:17:47;;;;;;;;;1.00;1.00;;;;;;;;5050162;28;8805;-75
2023/05/12 13:20:12;;;;;;;;;1.00;1.00;;;;;;;;5049671;28;8796;-74
2023/05/12 13:22:38;;;;;;;;;1.00;1.00;;;;;;;;5049455;28;8809;-75
2023/05/12 13:25:06;;;;;;;;;1.75;1.00;;;;;;;;5064173;28;8834;-77
2023/05/12 13:27:31;;;;;;;;;1.25;1.25;;;;;;;;5069633;28;8922;-72
2023/05/12 13:29:57;;;;;;;;;2.00;1.00;;;;;;;;5067585;28;10196;-74
2023/05/12 13:32:22;;;;;;;;;2.00;2.00;;;;;;;;5069508;28;8822;-72
2023/05/12 13:34:47;;;;;;;;;0.00;0.00;;;;;;;;5068436;28;9687;-71
2023/05/12 13:37:13;;;;;;;;;1.00;1.00;;;;;;;;5066072;28;8808;-72
2023/05/12 13:39:39;;;;;;;;;1.00;1.00;;;;;;;;5066544;28;8819;-71
2023/05/12 13:42:05;;;;;;;;;0.50;0.50;;;;;;;;5068579;28;8822;-75
2023/05/12 13:44:30;;;;;;;;;0.00;0.00;;;;;;;;5067897;28;10335;-77
2023/05/12 13:46:55;;;;;;;;;0.50;0.50;;;;;;;;5067550;28;8947;-73
2023/05/12 13:49:21;;;;;;;;;1.00;1.00;;;;;;;;5068308;28;8811;-73
2023/05/12 13:51:46;;;;;;;;;2.00;1.00;;;;;;;;5068166;28;8823;-72
2023/05/12 13:54:11;;;;;;;;;2.00;2.00;;;;;;;;5068226;28;8812;-75
2023/05/12 13:56:37;;;;;;;;;2.00;1.00;;;;;;;;5068724;28;8811;-75
2023/05/12 13:59:02;;;;;;;;;0.00;0.00;;;;;;;;5069325;28;8818;-75
2023/05/12 14:01:27;;;;;;;;;1.00;0.25;;;;;;;;5069977;28;8828;-78
2023/05/12 14:03:53;;;;;;;;;1.00;1.00;;;;;;;;5069318;28;8806;-75
2023/05/12 14:06:18;;;;;;;;;1.00;1.00;;;;;;;;5069627;28;8822;-80
2023/05/12 14:08:43;;;;;;;;;3.00;2.00;;;;;;;;5070258;28;8802;-76
2023/05/12 14:11:09;;;;;;;;;2.00;1.25;;;;;;;;5067020;28;8868;-75
2023/05/12 14:13:34;;;;;;;;;1.00;1.00;;;;;;;;5066690;28;9568;-74
2023/05/12 14:15:59;;;;;;;;;0.25;0.25;;;;;;;;5068765;28;8811;-74
2023/05/12 14:18:25;;;;;;;;;1.25;0.50;;;;;;;;5069106;28;8774;-73
2023/05/12 14:20:50;;;;;;;;;0.75;0.75;;;;;;;;5067777;28;8844;-71
2023/05/12 14:23:15;;;;;;;;;1.00;1.00;;;;;;;;5067276;28;8771;-70
2023/05/12 14:25:41;;;;;;;;;0.00;0.00;;;;;;;;5068787;28;8822;-70
2023/05/12 14:28:06;;;;;;;;;0.00;0.00;;;;;;;;5069233;28;9763;-70
2023/05/12 14:30:33;;;;;;;;;1.50;0.00;;;;;;;;5069242;28;8774;-73
2023/05/12 14:32:59;;;;;;;;;0.00;0.00;;;;;;;;5067544;28;9760;-74
2023/05/12 14:35:26;;;;;;;;;2.00;0.00;;;;;;;;5068867;28;10244;-76
2023/05/12 14:37:51;;;;;;;;;0.00;0.00;;;;;;;;5068959;28;8779;-74
2023/05/12 14:40:17;;;;;;;;;0.75;0.75;;;;;;;;5069026;28;10267;-71
2023/05/12 14:42:42;;;;;;;;;1.50;0.00;;;;;;;;5066806;28;8799;-70
2023/05/12 14:45:08;;;;;;;;;0.00;0.00;;;;;;;;5068894;28;9595;-70
2023/05/12 14:47:33;;;;;;;;;0.00;0.00;;;;;;;;5070690;28;8948;-75
2023/05/12 14:49:58;;;;;;;;;0.50;0.00;;;;;;;;5072947;28;8847;-74
2023/05/12 14:52:23;;;;;;;;;0.00;0.00;;;;;;;;5070516;28;8845;-73
2023/05/12 14:54:49;;;;;;;;;0.00;0.00;;;;;;;;5071264;28;8791;-71
2023/05/12 14:57:14;;;;;;;;;0.00;0.00;;;;;;;;5072399;28;9020;-71
2023/05/12 14:59:40;;;;;;;;;0.00;0.00;;;;;;;;5072725;28;8766;-73
2023/05/12 15:02:05;;;;;;;;;0.00;0.00;;;;;;;;5069833;28;10954;-70
2023/05/12 15:04:31;;;;;;;;;4.00;4.00;;;;;;;;5072061;28;8897;-75
2023/05/12 15:06:56;;;;;;;;;0.75;0.75;;;;;;;;5071865;28;8912;-75
2023/05/12 15:09:21;;;;;;;;;0.00;0.00;;;;;;;;5070850;28;8903;-71
2023/05/12 15:11:48;;;;;;;;;1.75;1.00;;;;;;;;5070514;28;8799;-74
2023/05/12 15:14:13;;;;;;;;;3.25;3.25;;;;;;;;5071727;28;8803;-71
2023/05/12 17:09:39;;;;;;;;;8.25;8.00;;;;;;;;5104133;27;13546;-69
2023/05/12 17:12:05;;;;;;;;;7.25;4.75;;;;;;;;5107394;28;11492;-71
2023/05/12 17:14:30;;;;;;;;;3.00;2.00;;;;;;;;5106452;27;8874;-71
2023/05/12 17:16:56;;;;;;;;;2.00;2.00;;;;;;;;5106534;28;8788;-72
2023/05/12 17:19:21;;;;;;;;;2.50;2.50;;;;;;;;5107340;28;8875;-71
2023/05/12 17:21:47;;;;;;;;;3.00;1.00;;;;;;;;5106913;27;8853;-72
2023/05/12 17:24:12;;;;;;;;;5.25;3.75;;;;;;;;5118956;27;8833;-69
2023/05/12 17:26:37;;;;;;;;;1.75;1.00;;;;;;;;5115238;27;8797;-70
2023/05/12 17:29:02;;;;;;;;;2.75;1.00;;;;;;;;5117829;27;8870;-73
2023/05/12 17:31:28;;;;;;;;;2.00;2.00;;;;;;;;5115797;27;8796;-70
2023/05/12 17:33:53;;;;;;;;;1.50;1.50;;;;;;;;5117299;27;8797;-69
2023/05/12 17:36:19;;;;;;;;;2.00;2.00;;;;;;;;5116935;27;8887;-70
2023/05/12 17:38:45;;;;;;;;;1.75;1.75;;;;;;;;5124373;27;8802;-71
2023/05/12 17:41:10;;;;;;;;;1.00;1.00;;;;;;;;5127243;27;8781;-71
2023/05/12 17:43:35;;;;;;;;;1.50;1.25;;;;;;;;5127436;27;9599;-72
2023/05/12 17:46:01;;;;;;;;;1.75;1.75;;;;;;;;5112132;28;8927;-69
2023/05/12 17:48:29;;;;;;;;;1.00;1.00;;;;;;;;5106637;28;8823;-70
2023/05/12 17:50:55;;;;;;;;;1.00;1.00;;;;;;;;5112864;27;10480;-79
2023/05/12 17:53:20;;;;;;;;;2.00;2.00;;;;;;;;5125862;27;10375;-71
2023/05/12 17:55:45;;;;;;;;;3.00;1.00;;;;;;;;5115406;28;8834;-71
2023/05/12 17:58:11;;;;;;;;;1.00;1.00;;;;;;;;5106347;28;8885;-72
2023/05/12 18:00:36;;;;;;;;;1.00;1.00;;;;;;;;5106175;28;8893;-71
2023/05/12 18:03:01;;;;;;;;;1.25;1.25;;;;;;;;5113231;27;8805;-68
2023/05/12 18:05:27;;;;;;;;;1.75;1.75;;;;;;;;5116721;28;8799;-73
2023/05/12 18:07:52;;;;;;;;;1.00;1.00;;;;;;;;5105894;28;8835;-77
2023/05/12 18:10:18;;;;;;;;;1.00;1.00;;;;;;;;5104837;28;9594;-76
2023/05/12 18:12:43;;;;;;;;;0.50;0.00;;;;;;;;5120847;27;8829;-75
2023/05/12 18:15:09;;;;;;;;;0.25;0.25;;;;;;;;5123554;27;9246;-77
2023/05/12 18:17:34;;;;;;;;;0.00;0.00;;;;;;;;5126607;27;8903;-78
2023/05/12 18:19:59;;;;;;;;;0.00;0.00;;;;;;;;5118425;27;10362;-77
2023/05/12 18:22:25;;;;;;;;;0.00;0.00;;;;;;;;5093755;28;8862;-73
2023/05/12 18:24:50;;;;;;;;;1.00;0.25;;;;;;;;5091237;28;8825;-72
2023/05/12 18:27:16;;;;;;;;;1.00;1.00;;;;;;;;5091921;28;9604;-71
2023/05/12 18:29:41;;;;;;;;;1.00;1.00;;;;;;;;5091923;28;9560;-72
2023/05/12 18:32:07;;;;;;;;;1.00;1.00;;;;;;;;5092110;28;8780;-74
2023/05/12 18:34:32;;;;;;;;;1.00;1.00;;;;;;;;5091068;28;8776;-74
2023/05/12 18:36:57;;;;;;;;;3.25;2.50;;;;;;;;5091581;28;8805;-75
2023/05/12 18:39:23;;;;;;;;;1.00;1.00;;;;;;;;5092257;28;8816;-78
2023/05/12 18:41:49;;;;;;;;;1.00;1.00;;;;;;;;5092305;28;8790;-75
2023/05/12 18:44:14;;;;;;;;;2.75;2.00;;;;;;;;5092059;28;11227;-76
2023/05/12 18:46:39;;;;;;;;;4.25;3.00;;;;;;;;5090076;28;8934;-75
2023/05/12 18:49:05;;;;;;;;;2.50;2.00;;;;;;;;5091709;28;8812;-74
2023/05/12 18:51:30;;;;;;;;;2.75;2.00;;;;;;;;5102486;28;8790;-76
2023/05/12 18:53:55;;;;;;;;;2.25;1.00;;;;;;;;5111852;28;8828;-77
2023/05/12 18:56:21;;;;;;;;;0.00;0.00;;;;;;;;5097329;28;8796;-77
2023/05/12 18:58:46;;;;;;;;;1.75;1.00;;;;;;;;5091651;28;8800;-75
2023/05/12 19:01:11;;;;;;;;;1.25;1.00;;;;;;;;5089926;28;8823;-76
2023/05/12 19:03:37;;;;;;;;;0.00;0.00;;;;;;;;5091618;28;8892;-72
2023/05/12 19:06:02;;;;;;;;;1.00;1.00;;;;;;;;5101855;28;8794;-69
2023/05/12 19:08:27;;;;;;;;;0.50;0.50;;;;;;;;5111394;28;8837;-71
2023/05/12 19:10:53;;;;;;;;;1.00;1.00;;;;;;;;5111647;28;8785;-69
2023/05/12 19:13:18;;;;;;;;;1.75;1.75;;;;;;;;5111454;28;8797;-70
2023/05/12 19:15:43;;;;;;;;;2.00;2.00;;;;;;;;5103382;28;8805;-68
2023/05/12 19:18:08;;;;;;;;;3.25;0.75;;;;;;;;5111624;28;8829;-66
2023/05/12 19:20:35;;;;;;;;;1.00;1.00;;;;;;;;5108223;27;8840;-69
2023/05/12 19:23:00;;;;;;;;;0.75;0.75;;;;;;;;5091051;28;8802;-69
2023/05/12 19:25:25;;;;;;;;;2.00;2.00;;;;;;;;5089456;28;11389;-70
2023/05/12 19:27:51;;;;;;;;;1.00;1.00;;;;;;;;5090579;28;8835;-72
2023/05/12 19:30:16;;;;;;;;;1.00;1.00;;;;;;;;5090440;28;8814;-70
2023/05/12 19:32:44;;;;;;;;;2.00;0.50;;;;;;;;5089645;28;8830;-68
2023/05/12 19:35:10;;;;;;;;;2.25;2.25;;;;;;;;5089914;28;8982;-71
2023/05/12 19:37:36;;;;;;;;;3.75;2.00;;;;;;;;5110337;28;11386;-71
2023/05/12 19:40:02;;;;;;;;;4.00;4.00;;;;;;;;5110579;28;11432;-71
2023/05/12 19:42:28;;;;;;;;;3.75;3.00;;;;;;;;5101261;28;8889;-68
2023/05/12 19:44:53;;;;;;;;;4.50;3.75;;;;;;;;5097481;28;11621;-65
2023/05/12 19:47:23;;;;;;;;;3.00;3.00;;;;;;;;5091135;28;8820;-66
2023/05/12 19:49:53;;;;;;;;;3.00;2.00;;;;;;;;5089128;28;8796;-67
2023/05/12 19:52:19;;;;;;;;;2.50;1.50;;;;;;;;5088822;28;11052;-68
2023/05/12 19:54:45;;;;;;;;;1.25;1.25;;;;;;;;5088275;28;11016;-69
2023/05/12 19:57:10;;;;;;;;;3.00;3.00;;;;;;;;5088480;28;10985;-68
2023/05/12 19:59:35;;;;;;;;;1.75;1.75;;;;;;;;5089043;28;8831;-68
2023/05/12 20:02:01;;;;;;;;;3.25;2.25;;;;;;;;5088660;28;8883;-68
2023/05/12 20:04:27;;;;;;;;;2.00;2.00;;;;;;;;5088601;28;8839;-69
2023/05/12 20:06:53;;;;;;;;;1.75;1.75;;;;;;;;5087969;28;8831;-68
2023/05/12 20:09:20;;;;;;;;;2.75;2.00;;;;;;;;5088044;28;11431;-68
2023/05/12 20:11:46;;;;;;;;;2.00;1.00;;;;;;;;5085999;28;11051;-72
2023/05/12 20:14:11;;;;;;;;;2.00;1.00;;;;;;;;5087461;28;10933;-71
2023/05/12 20:16:37;;;;;;;;;1.00;1.00;;;;;;;;5078735;28;8918;-71
2023/05/12 20:19:02;;;;;;;;;2.75;1.00;;;;;;;;5086410;28;8943;-71
2023/05/12 20:21:27;;;;;;;;;2.25;1.00;;;;;;;;5099326;28;8802;-70
2023/05/12 20:23:52;;;;;;;;;1.25;0.75;;;;;;;;5098506;28;8804;-70
2023/05/12 20:26:18;;;;;;;;;1.75;1.00;;;;;;;;5088288;28;8828;-70
2023/05/12 20:28:43;;;;;;;;;2.00;2.00;;;;;;;;5086576;28;8971;-71
2023/05/12 20:31:08;;;;;;;;;1.50;1.50;;;;;;;;5087920;28;8904;-71
2023/05/12 20:33:34;;;;;;;;;1.25;1.25;;;;;;;;5088080;28;8799;-71
2023/05/12 20:35:59;;;;;;;;;2.75;1.00;;;;;;;;5086691;28;8985;-71
2023/05/12 20:38:24;;;;;;;;;1.50;1.00;;;;;;;;5087961;28;8812;-71
2023/05/12 20:40:50;;;;;;;;;1.00;1.00;;;;;;;;5086475;28;8854;-70
2023/05/12 20:43:16;;;;;;;;;1.00;1.00;;;;;;;;5087749;28;8919;-70
2023/05/12 20:45:41;;;;;;;;;3.75;1.75;;;;;;;;5086122;28;11468;-70
2023/05/12 21:28:28;;;;;;;;;2.00;2.00;;;;;;;;4948194;27;13239;-67
2023/05/12 21:30:54;;;;;;;;;1.25;1.25;;;;;;;;5008287;28;11497;-70
2023/05/12 21:33:19;;;;;;;;;5.00;2.00;;;;;;;;5022979;28;9645;-68
2023/05/12 21:35:44;;;;;;;;;0.25;0.00;;;;;;;;5054176;23;8949;-69
2023/05/12 21:38:10;;;;;;;;;0.50;0.00;;;;;;;;5044199;28;8951;-68
2023/05/12 21:40:35;;;;;;;;;1.00;1.00;;;;;;;;5044269;28;8819;-69
2023/05/12 21:43:01;;;;;;;;;2.00;2.00;;;;;;;;5044003;28;8824;-69
2023/05/12 21:45:26;;;;;;;;;0.00;0.00;;;;;;;;5044000;28;9605;-69
2023/05/12 21:47:51;;;;;;;;;0.00;0.00;;;;;;;;5045364;28;8812;-69
2023/05/12 21:50:17;;;;;;;;;0.00;0.00;;;;;;;;5046049;28;8804;-67
2023/05/12 21:52:43;;;;;;;;;0.00;0.00;;;;;;;;5045984;28;8831;-68
2023/05/12 21:55:08;;;;;;;;;1.00;1.00;;;;;;;;5045891;28;8820;-69
2023/05/12 21:57:34;;;;;;;;;1.75;0.75;;;;;;;;5045655;28;8843;-68
2023/05/12 22:00:02;;;;;;;;;1.00;1.00;;;;;;;;5045870;28;8831;-68
2023/05/12 22:02:28;;;;;;;;;2.25;0.75;;;;;;;;5045520;28;8890;-68
2023/05/12 22:04:53;;;;;;;;;1.50;0.75;;;;;;;;5045688;28;11386;-68
2023/05/12 22:07:19;;;;;;;;;1.00;1.00;;;;;;;;5045745;28;9568;-68
2023/05/12 22:09:44;;;;;;;;;0.00;0.00;;;;;;;;5027599;28;9575;-68
2023/05/12 22:12:15;;;;;;;;;0.00;0.00;;;;;;;;5045614;28;8796;-68
2023/05/12 22:14:40;;;;;;;;;0.00;0.00;;;;;;;;5045469;28;8820;-68
2023/05/12 22:17:06;;;;;;;;;2.00;1.00;;;;;;;;5045162;28;11429;-68
2023/05/12 22:19:31;;;;;;;;;0.00;0.00;;;;;;;;5045415;28;8861;-68
2023/05/12 22:21:57;;;;;;;;;0.75;0.00;;;;;;;;5045435;28;8805;-68
2023/05/12 22:24:22;;;;;;;;;1.75;0.00;;;;;;;;5045339;28;8885;-68
2023/05/12 22:26:47;;;;;;;;;1.00;0.00;;;;;;;;5027164;28;8879;-68
2023/05/12 22:29:13;;;;;;;;;0.00;0.00;;;;;;;;5045112;28;9531;-68
2023/05/12 22:31:38;;;;;;;;;1.00;1.00;;;;;;;;5044982;28;8881;-68
2023/05/12 22:34:03;;;;;;;;;0.00;0.00;;;;;;;;5056399;23;8843;-75
2023/05/12 22:36:28;;;;;;;;;0.00;0.00;;;;;;;;5025602;28;8815;-76
2023/05/12 22:38:54;;;;;;;;;0.00;0.00;;;;;;;;5017778;28;8845;-76
2023/05/12 22:41:19;;;;;;;;;0.00;0.00;;;;;;;;5012632;28;8914;-76
2023/05/12 22:43:45;;;;;;;;;0.00;0.00;;;;;;;;5012749;28;8770;-76
2023/05/12 22:46:10;;;;;;;;;1.75;0.00;;;;;;;;5012348;28;9534;-76
2023/05/12 22:48:35;;;;;;;;;0.00;0.00;;;;;;;;5012658;28;8799;-76
2023/05/12 22:51:01;;;;;;;;;0.00;0.00;;;;;;;;5013470;28;8803;-76
2023/05/12 22:53:26;;;;;;;;;0.75;0.00;;;;;;;;5013408;28;8791;-76
2023/05/12 22:55:51;;;;;;;;;2.00;0.00;;;;;;;;5013385;28;8809;-76
2023/05/12 22:58:16;;;;;;;;;1.00;1.00;;;;;;;;5013214;28;8802;-76
2023/05/12 23:00:42;;;;;;;;;0.00;0.00;;;;;;;;5013231;28;9549;-76
2023/05/12 23:03:07;;;;;;;;;0.75;0.75;;;;;;;;5013222;28;8799;-77
2023/05/12 23:05:32;;;;;;;;;0.00;0.00;;;;;;;;5013191;28;9567;-76
2023/05/12 23:07:57;;;;;;;;;0.00;0.00;;;;;;;;5013197;28;8787;-76
2023/05/12 23:10:23;;;;;;;;;0.00;0.00;;;;;;;;5013047;28;9494;-76
2023/05/12 23:12:48;;;;;;;;;0.75;0.00;;;;;;;;5012972;28;8821;-77
2023/05/12 23:15:13;;;;;;;;;0.00;0.00;;;;;;;;4995177;28;8918;-76
2023/05/12 23:17:39;;;;;;;;;0.00;0.00;;;;;;;;5012785;28;8815;-76
2023/05/12 23:20:04;;;;;;;;;0.75;0.75;;;;;;;;4995280;28;8849;-76
2023/05/12 23:22:30;;;;;;;;;0.00;0.00;;;;;;;;5012987;28;8786;-76
2023/05/12 23:24:57;;;;;;;;;0.50;0.50;;;;;;;;5012801;28;8832;-76
2023/05/12 23:27:22;;;;;;;;;1.00;0.00;;;;;;;;5012635;28;8875;-76
2023/05/12 23:29:47;;;;;;;;;0.00;0.00;;;;;;;;5012461;28;11385;-76
2023/05/12 23:32:13;;;;;;;;;0.00;0.00;;;;;;;;5012617;28;9518;-76
2023/05/12 23:34:39;;;;;;;;;0.00;0.00;;;;;;;;5012907;28;8827;-76